createdAt,value
2023-05-19T00:01:09.228Z,102948.97
2023-05-19T00:03:40.808Z,102940.66
2023-05-19T00:06:11.027Z,102938.97
2023-05-19T00:08:40.600Z,102935.31
2023-05-19T00:11:10.561Z,102931.81
2023-05-19T00:13:40.936Z,102935.44
2023-05-19T00:16:11.321Z,102931.06
2023-05-19T00:18:40.850Z,102929.41
2023-05-19T00:21:09.734Z,102931.28
2023-05-19T00:23:38.567Z,102938.09
2023-05-19T00:26:07.359Z,102932.06
2023-05-19T00:28:40.653Z,102923.38
2023-05-19T00:31:09.403Z,102923.16
2023-05-19T00:33:38.238Z,102932.53
2023-05-19T00:36:07.860Z,102926.84
2023-05-19T00:38:38.106Z,102928.19
2023-05-19T00:41:08.393Z,102927.13
2023-05-19T00:43:37.409Z,102933.53
2023-05-19T00:46:08.202Z,102915.47
2023-05-19T00:48:37.001Z,102930.44
2023-05-19T00:51:06.711Z,102924.53
2023-05-19T00:53:36.521Z,102930.66
2023-05-19T00:56:05.952Z,102918.50
2023-05-19T00:58:35.976Z,102928.84
2023-05-19T01:01:08.247Z,102915.66
2023-05-19T01:03:41.124Z,102927.09
2023-05-19T01:06:14.592Z,102920.00
2023-05-19T01:08:43.368Z,102932.31
2023-05-19T01:11:13.713Z,102928.19
2023-05-19T01:13:43.176Z,102924.81
2023-05-19T01:16:20.718Z,102919.47
2023-05-19T01:18:58.326Z,102915.88
2023-05-19T01:22:29.216Z,102913.13
2023-05-19T01:25:51.253Z,102905.84
2023-05-19T01:28:44.124Z,102914.69
2023-05-19T01:31:14.693Z,102910.75
2023-05-19T01:33:45.183Z,102909.78
2023-05-19T01:36:15.540Z,102901.00
2023-05-19T01:38:46.271Z,102896.63
2023-05-19T01:41:16.298Z,102901.84
2023-05-19T01:43:46.291Z,102899.81
2023-05-19T01:46:17.368Z,102903.16
2023-05-19T01:48:46.566Z,102884.50
2023-05-19T01:51:15.403Z,102892.72
2023-05-19T01:53:44.906Z,102896.78
2023-05-19T01:56:18.534Z,102883.44
2023-05-19T01:58:52.413Z,102884.66
2023-05-19T02:01:34.662Z,102881.91
2023-05-19T02:04:25.957Z,102885.38
2023-05-19T02:07:02.894Z,102891.75
2023-05-19T02:09:41.118Z,102889.06
2023-05-19T02:12:20.215Z,102892.69
2023-05-19T02:14:58.300Z,102890.19
2023-05-19T02:17:33.150Z,102883.16
2023-05-19T02:20:02.190Z,102889.25
2023-05-19T02:22:31.993Z,102897.50
2023-05-19T02:25:00.673Z,102898.63
2023-05-19T02:27:30.058Z,102892.16
2023-05-19T02:29:59.890Z,102893.84
2023-05-19T02:32:31.019Z,102886.72
2023-05-19T02:35:00.410Z,102875.91
2023-05-19T02:37:30.267Z,102872.44
2023-05-19T02:39:59.318Z,102882.63
2023-05-19T02:42:28.586Z,102879.69
2023-05-19T02:44:59.089Z,102863.59
2023-05-19T02:47:30.884Z,102864.47
2023-05-19T02:50:01.472Z,102869.97
2023-05-19T02:52:31.380Z,102869.94
2023-05-19T02:55:00.592Z,102866.41
2023-05-19T02:57:31.915Z,102873.44
2023-05-19T03:00:01.349Z,102867.44
2023-05-19T03:02:34.497Z,102861.28
2023-05-19T03:05:04.208Z,102866.59
2023-05-19T03:07:34.154Z,102877.31
2023-05-19T03:10:08.257Z,102867.38
2023-05-19T03:12:50.980Z,102864.19
2023-05-19T03:15:23.284Z,102851.53
2023-05-19T03:17:55.235Z,102844.38
2023-05-19T03:20:24.817Z,102852.44
2023-05-19T03:22:53.384Z,102859.59
2023-05-19T03:25:22.081Z,102858.81
2023-05-19T03:27:50.590Z,102853.34
2023-05-19T03:30:19.153Z,102860.41
2023-05-19T03:32:48.195Z,102861.16
2023-05-19T03:35:24.940Z,102853.13
2023-05-19T03:37:53.797Z,102849.56
2023-05-19T03:40:23.174Z,102849.56
2023-05-19T03:42:51.629Z,102842.44
2023-05-19T03:45:20.183Z,102849.69
2023-05-19T03:47:48.793Z,102851.56
2023-05-19T03:50:19.220Z,102847.09
2023-05-19T03:52:49.372Z,102853.19
2023-05-19T03:55:20.351Z,102846.09
2023-05-19T03:57:48.761Z,102844.44
2023-05-19T04:00:18.406Z,102846.44
2023-05-19T04:02:47.036Z,102851.56
2023-05-19T04:05:18.952Z,102850.66
2023-05-19T04:07:47.891Z,102852.53
2023-05-19T04:10:16.266Z,102858.63
2023-05-19T04:12:44.861Z,102841.63
2023-05-19T04:15:13.836Z,102847.97
2023-05-19T04:17:42.857Z,102859.44
2023-05-19T04:20:13.977Z,102856.00
2023-05-19T04:22:44.268Z,102860.41
2023-05-19T04:25:13.354Z,102861.94
2023-05-19T04:27:42.600Z,102867.28
2023-05-19T04:30:12.100Z,102870.13
2023-05-19T04:32:41.648Z,102871.69
2023-05-19T04:35:13.818Z,102868.84
2023-05-19T04:37:47.576Z,102864.38
2023-05-19T04:40:17.788Z,102859.69
2023-05-19T04:42:49.908Z,102867.13
2023-05-19T04:45:18.993Z,102865.09
2023-05-19T04:47:50.730Z,102873.25
2023-05-19T04:50:21.091Z,102871.28
2023-05-19T04:52:51.682Z,102867.72
2023-05-19T04:55:20.797Z,102864.94
2023-05-19T05:03:09.159Z,102885.31
2023-05-19T05:05:42.199Z,102879.09
2023-05-19T05:08:23.318Z,102881.97
2023-05-19T05:10:53.851Z,102878.94
2023-05-19T05:13:28.813Z,102883.03
2023-05-19T05:16:03.318Z,102888.97
2023-05-19T05:18:34.507Z,102891.84
2023-05-19T05:21:06.812Z,102888.88
2023-05-19T05:23:39.202Z,102896.53
2023-05-19T05:26:20.977Z,102892.50
2023-05-19T05:28:52.001Z,102885.63
2023-05-19T05:31:23.415Z,102883.28
2023-05-19T05:33:53.671Z,102882.91
2023-05-19T05:36:25.542Z,102881.59
2023-05-19T05:38:59.896Z,102886.91
2023-05-19T05:41:32.374Z,102890.03
2023-05-19T05:44:14.109Z,102882.50
2023-05-19T05:46:51.862Z,102884.34
2023-05-19T05:49:27.912Z,102886.09
2023-05-19T05:52:06.174Z,102878.19
2023-05-19T05:54:46.090Z,102879.81
2023-05-19T05:57:16.302Z,102880.94
2023-05-19T05:59:47.319Z,102875.81
2023-05-19T06:05:02.776Z,102879.00
2023-05-19T06:07:37.048Z,102874.53
2023-05-19T06:10:11.599Z,102878.97
2023-05-19T06:12:45.591Z,102878.19
2023-05-19T06:15:15.590Z,102876.63
2023-05-19T06:17:49.285Z,102881.19
2023-05-19T06:20:22.448Z,102877.81
2023-05-19T06:22:58.813Z,102879.00
2023-05-19T06:25:30.471Z,102872.19
2023-05-19T06:28:02.478Z,102871.06
2023-05-19T06:30:35.106Z,102877.38
2023-05-19T06:33:09.305Z,102875.31
2023-05-19T06:35:45.347Z,102865.44
2023-05-19T06:38:18.844Z,102873.41
2023-05-19T06:40:51.098Z,102873.78
2023-05-19T06:43:22.728Z,102863.03
2023-05-19T06:45:56.533Z,102871.00
2023-05-19T06:48:33.462Z,102871.06
2023-05-19T06:51:07.358Z,102870.25
2023-05-19T06:53:36.420Z,102865.44
2023-05-19T06:56:10.447Z,102867.34
2023-05-19T06:58:45.331Z,102872.59
2023-05-19T07:01:22.091Z,102873.97
2023-05-19T07:03:52.469Z,102878.66
2023-05-19T07:06:24.264Z,102866.91
2023-05-19T07:08:54.468Z,102872.88
2023-05-19T07:11:29.808Z,102864.63
2023-05-19T07:14:06.003Z,102862.69
2023-05-19T07:16:37.755Z,102860.03
2023-05-19T07:19:13.850Z,102868.19
2023-05-19T07:21:44.597Z,102873.59
2023-05-19T07:24:15.853Z,102869.28
2023-05-19T07:26:49.279Z,102867.59
2023-05-19T07:29:19.465Z,102864.69
2023-05-19T07:31:50.116Z,102860.81
2023-05-19T07:34:20.730Z,102862.69
2023-05-19T07:36:52.889Z,102859.53
2023-05-19T07:39:22.282Z,102869.88
2023-05-19T07:41:57.029Z,102861.56
2023-05-19T07:44:27.153Z,102866.09
2023-05-19T07:46:57.040Z,102866.50
2023-05-19T07:49:26.322Z,102858.84
2023-05-19T07:52:02.857Z,102862.88
2023-05-19T07:54:32.977Z,102858.03
2023-05-19T07:57:05.854Z,102865.88
2023-05-19T07:59:37.094Z,102857.31
2023-05-19T08:02:14.827Z,102854.91
2023-05-19T08:04:44.768Z,102856.88
2023-05-19T08:07:14.265Z,102849.25
2023-05-19T08:09:46.133Z,102847.34
2023-05-19T08:12:16.791Z,102842.41
2023-05-19T08:14:48.511Z,102845.28
2023-05-19T08:17:20.699Z,102849.25
2023-05-19T08:19:51.209Z,102841.13
2023-05-19T08:22:22.509Z,102842.41
2023-05-19T08:24:58.432Z,102833.91
2023-05-19T08:27:36.217Z,102833.97
2023-05-19T08:30:09.493Z,102839.78
2023-05-19T08:32:43.639Z,102838.69
2023-05-19T08:35:14.273Z,102836.78
2023-05-19T08:37:43.345Z,102833.94
2023-05-19T08:40:20.143Z,102834.25
2023-05-19T08:42:54.325Z,102838.63
2023-05-19T08:45:28.401Z,102823.06
2023-05-19T08:48:00.919Z,102821.78
2023-05-19T08:50:37.676Z,102820.09
2023-05-19T08:53:28.912Z,102816.09
2023-05-19T08:56:12.346Z,102814.44
2023-05-19T08:58:46.542Z,102807.28
2023-05-19T09:01:20.671Z,102809.66
2023-05-19T09:03:54.679Z,102804.06
2023-05-19T09:06:25.381Z,102806.09
2023-05-19T09:08:56.243Z,102802.59
2023-05-19T09:11:29.758Z,102808.44
2023-05-19T09:14:00.757Z,102807.50
2023-05-19T09:16:32.344Z,102806.59
2023-05-19T09:19:09.226Z,102796.97
2023-05-19T09:21:39.066Z,102802.41
2023-05-19T09:24:11.813Z,102798.72
2023-05-19T09:26:45.016Z,102789.88
2023-05-19T09:29:17.666Z,102786.13
2023-05-19T09:31:52.033Z,102791.44
2023-05-19T09:34:23.012Z,102803.13
2023-05-19T09:36:56.066Z,102795.63
2023-05-19T09:39:29.097Z,102798.53
2023-05-19T09:41:58.995Z,102796.25
2023-05-19T09:44:31.685Z,102787.97
2023-05-19T09:47:05.987Z,102791.81
2023-05-19T09:49:38.049Z,102788.63
2023-05-19T09:52:11.080Z,102788.06
2023-05-19T09:54:43.950Z,102793.84
2023-05-19T09:57:16.076Z,102789.75
2023-05-19T09:59:48.404Z,102796.28
2023-05-19T10:02:24.885Z,102796.91
2023-05-19T10:04:55.813Z,102794.59
2023-05-19T10:07:25.835Z,102784.81
2023-05-19T10:09:58.653Z,102786.09
2023-05-19T10:12:35.745Z,102788.63
2023-05-19T10:15:12.614Z,102787.31
2023-05-19T10:17:47.103Z,102779.38
2023-05-19T10:20:18.223Z,102770.75
2023-05-19T10:22:48.752Z,102784.16
2023-05-19T10:25:20.266Z,102779.16
2023-05-19T10:28:09.064Z,102783.38
2023-05-19T10:30:46.594Z,102774.88
2023-05-19T10:33:20.311Z,102773.69
2023-05-19T10:36:16.576Z,102771.84
2023-05-19T10:38:58.170Z,102757.09
2023-05-19T10:41:49.108Z,102765.38
2023-05-19T10:44:36.779Z,102765.53
2023-05-19T10:47:17.112Z,102750.75
2023-05-19T10:49:48.279Z,102756.66
2023-05-19T10:52:28.476Z,102757.06
2023-05-19T10:54:59.407Z,102748.19
2023-05-19T10:57:32.102Z,102743.81
2023-05-19T11:00:11.209Z,102757.59
2023-05-19T11:02:45.627Z,102748.59
2023-05-19T11:05:18.415Z,102745.34
2023-05-19T11:08:05.024Z,102751.66
2023-05-19T11:10:37.351Z,102737.28
2023-05-19T11:13:07.193Z,102740.97
2023-05-19T11:15:38.805Z,102740.19
2023-05-19T11:18:13.774Z,102734.59
2023-05-19T11:20:43.260Z,102734.50
2023-05-19T11:23:22.026Z,102740.59
2023-05-19T11:25:55.125Z,102736.75
2023-05-19T11:28:28.553Z,102741.28
2023-05-19T11:31:05.848Z,102736.63
2023-05-19T11:33:46.401Z,102730.16
2023-05-19T11:36:16.833Z,102730.53
2023-05-19T11:38:49.946Z,102735.28
2023-05-19T11:41:21.610Z,102724.53
2023-05-19T11:43:54.604Z,102723.63
2023-05-19T11:46:25.093Z,102714.81
2023-05-19T11:48:57.805Z,102725.03
2023-05-19T11:51:32.541Z,102723.03
2023-05-19T11:54:04.598Z,102725.13
2023-05-19T11:56:38.945Z,102723.47
2023-05-19T11:59:11.801Z,102716.22
2023-05-19T12:01:47.986Z,102714.72
2023-05-19T12:04:30.749Z,102713.44
2023-05-19T12:07:03.024Z,102718.97
2023-05-19T12:09:44.140Z,102711.47
2023-05-19T12:12:22.022Z,102713.88
2023-05-19T12:15:04.698Z,102720.28
2023-05-19T12:17:42.104Z,102713.34
2023-05-19T12:20:28.809Z,102715.25
2023-05-19T12:23:02.251Z,102705.81
2023-05-19T12:25:44.550Z,102697.47
2023-05-19T12:28:34.612Z,102693.63
2023-05-19T12:31:15.255Z,102697.94
2023-05-19T12:33:49.699Z,102695.25
2023-05-19T12:36:34.512Z,102698.34
2023-05-19T12:39:07.322Z,102691.72
2023-05-19T12:41:45.055Z,102688.03
2023-05-19T12:44:21.716Z,102688.31
2023-05-19T12:46:57.458Z,102691.13
2023-05-19T12:49:29.989Z,102682.88
2023-05-19T12:52:07.195Z,102680.25
2023-05-19T12:54:41.021Z,102679.34
2023-05-19T12:57:25.451Z,102684.63
2023-05-19T12:59:55.581Z,102682.06
2023-05-19T13:05:10.774Z,102689.63
2023-05-19T13:07:45.691Z,102683.75
2023-05-19T13:10:22.886Z,102682.91
2023-05-19T13:13:00.220Z,102679.09
2023-05-19T13:15:35.208Z,102679.09
2023-05-19T13:18:12.790Z,102668.25
2023-05-19T13:20:45.883Z,102663.44
2023-05-19T13:23:16.424Z,102661.78
2023-05-19T13:25:50.885Z,102672.22
2023-05-19T13:28:23.870Z,102674.63
2023-05-19T13:30:59.802Z,102665.69
2023-05-19T13:33:30.180Z,102668.75
2023-05-19T13:35:59.915Z,102676.69
2023-05-19T13:38:34.053Z,102653.56
2023-05-19T13:41:03.301Z,102666.50
2023-05-19T13:43:33.845Z,102648.78
2023-05-19T13:46:04.116Z,102657.28
2023-05-19T13:48:32.868Z,102657.59
2023-05-19T13:51:04.087Z,102650.22
2023-05-19T13:53:45.917Z,102648.00
2023-05-19T13:56:18.915Z,102637.53
2023-05-19T13:58:53.089Z,102645.91
2023-05-19T14:01:29.178Z,102644.41
2023-05-19T14:03:58.463Z,102643.47
2023-05-19T14:06:28.477Z,102639.19
2023-05-19T14:08:59.806Z,102636.88
2023-05-19T14:11:35.161Z,102634.34
2023-05-19T14:14:04.491Z,102637.41
2023-05-19T14:16:33.740Z,102628.19
2023-05-19T14:21:48.207Z,102634.16
2023-05-19T14:24:24.394Z,102635.88
2023-05-19T14:26:55.103Z,102630.38
2023-05-19T14:29:24.892Z,102621.34
2023-05-19T14:31:55.137Z,102623.97
2023-05-19T14:34:33.366Z,102622.06
2023-05-19T14:37:05.763Z,102620.94
2023-05-19T14:39:37.765Z,102607.94
2023-05-19T14:42:09.332Z,102602.56
2023-05-19T14:44:39.299Z,102611.09
2023-05-19T14:47:09.185Z,102602.97
2023-05-19T14:49:40.925Z,102605.47
2023-05-19T14:52:11.774Z,102610.03
2023-05-19T14:54:44.046Z,102598.88
2023-05-19T14:57:15.476Z,102601.19
2023-05-19T14:59:44.495Z,102599.66
2023-05-19T15:02:14.669Z,102604.31
2023-05-19T15:04:50.281Z,102599.63
2023-05-19T15:07:24.768Z,102595.28
2023-05-19T15:09:57.051Z,102596.31
2023-05-19T15:12:36.658Z,102591.28
2023-05-19T15:15:08.333Z,102589.97
2023-05-19T15:17:38.589Z,102589.38
2023-05-19T15:20:08.999Z,102597.09
2023-05-19T15:22:39.593Z,102586.50
2023-05-19T15:25:12.049Z,102589.84
2023-05-19T15:27:55.089Z,102591.34
2023-05-19T15:30:27.373Z,102598.25
2023-05-19T15:32:56.120Z,102588.84
2023-05-19T15:35:25.671Z,102587.53
2023-05-19T15:37:54.728Z,102594.34
2023-05-19T15:40:26.097Z,102576.94
2023-05-19T15:42:56.821Z,102581.63
2023-05-19T15:45:26.471Z,102590.31
2023-05-19T15:47:59.343Z,102579.00
2023-05-19T15:50:28.321Z,102573.00
2023-05-19T15:53:09.894Z,102569.16
2023-05-19T15:55:44.520Z,102581.50
2023-05-19T15:58:16.069Z,102573.13
2023-05-19T16:00:46.645Z,102566.50
2023-05-19T16:03:19.217Z,102570.56
2023-05-19T16:05:48.887Z,102562.50
2023-05-19T16:08:29.596Z,102556.03
2023-05-19T16:11:00.612Z,102557.16
2023-05-19T16:13:30.810Z,102548.13
2023-05-19T16:16:02.845Z,102563.34
2023-05-19T16:18:36.366Z,102541.47
2023-05-19T16:21:08.011Z,102545.75
2023-05-19T16:23:37.330Z,102550.06
2023-05-19T16:26:13.591Z,102548.03
2023-05-19T16:28:43.838Z,102557.16
2023-05-19T16:31:12.940Z,102544.38
2023-05-19T16:33:49.390Z,102545.28
2023-05-19T16:36:19.187Z,102542.94
2023-05-19T16:38:51.592Z,102545.19
2023-05-19T16:41:25.263Z,102543.66
2023-05-19T16:43:58.644Z,102542.38
2023-05-19T16:46:29.314Z,102541.31
2023-05-19T16:49:00.473Z,102535.47
2023-05-19T16:51:31.608Z,102539.59
2023-05-19T16:54:04.456Z,102540.06
2023-05-19T16:56:43.266Z,102541.78
2023-05-19T16:59:12.678Z,102534.97
2023-05-19T17:01:54.301Z,102548.63
2023-05-19T17:04:30.798Z,102535.19
2023-05-19T17:07:01.161Z,102536.84
2023-05-19T17:09:33.338Z,102533.84
2023-05-19T17:12:05.096Z,102536.03
2023-05-19T17:14:36.849Z,102538.91
2023-05-19T17:17:09.484Z,102543.28
2023-05-19T17:19:40.263Z,102543.78
2023-05-19T17:22:11.200Z,102546.75
2023-05-19T17:27:37.728Z,102523.00
2023-05-19T17:30:12.150Z,102539.00
2023-05-19T17:32:44.872Z,102533.28
2023-05-19T17:35:17.295Z,102543.53
2023-05-19T17:37:51.415Z,102531.81
2023-05-19T17:40:29.646Z,102535.97
2023-05-19T17:43:01.370Z,102540.72
2023-05-19T17:45:35.325Z,102541.28
2023-05-19T17:48:08.995Z,102547.59
2023-05-19T17:50:38.132Z,102545.72
2023-05-19T17:53:16.185Z,102553.78
2023-05-19T17:55:52.295Z,102551.53
2023-05-19T17:58:25.961Z,102553.28
2023-05-19T18:00:56.517Z,102547.09
2023-05-19T18:03:26.902Z,102554.91
2023-05-19T18:05:57.464Z,102551.78
2023-05-19T18:08:28.274Z,102558.50
2023-05-19T18:10:59.839Z,102551.97
2023-05-19T18:13:35.601Z,102560.03
2023-05-19T18:16:04.402Z,102548.94
2023-05-19T18:18:37.142Z,102558.56
2023-05-19T18:21:07.820Z,102555.13
2023-05-19T18:23:39.756Z,102558.97
2023-05-19T18:26:10.280Z,102563.25
2023-05-19T18:28:41.959Z,102566.44
2023-05-19T18:31:18.590Z,102576.97
2023-05-19T18:33:56.268Z,102568.91
2023-05-19T18:36:30.431Z,102566.50
2023-05-19T18:39:05.697Z,102571.34
2023-05-19T18:41:35.547Z,102577.53
2023-05-19T18:44:08.445Z,102573.13
2023-05-19T18:46:42.453Z,102581.50
2023-05-19T18:49:12.037Z,102576.84
2023-05-19T18:51:42.294Z,102578.22
2023-05-19T18:54:14.026Z,102577.00
2023-05-19T18:56:45.787Z,102582.88
2023-05-19T18:59:19.574Z,102578.09
2023-05-19T19:01:51.539Z,102582.72
2023-05-19T19:04:24.499Z,102591.97
2023-05-19T19:06:53.526Z,102591.44
2023-05-19T19:09:22.840Z,102585.38
2023-05-19T19:11:53.453Z,102586.78
2023-05-19T19:14:24.281Z,102597.00
2023-05-19T19:16:56.950Z,102592.94
2023-05-19T19:19:30.277Z,102603.44
2023-05-19T19:22:01.735Z,102602.72
2023-05-19T19:24:37.177Z,102610.38
2023-05-19T19:27:07.225Z,102615.41
2023-05-19T19:29:38.557Z,102609.88
2023-05-19T19:32:09.682Z,102617.47
2023-05-19T19:34:39.585Z,102629.44
2023-05-19T19:37:08.178Z,102619.44
2023-05-19T19:39:36.621Z,102614.72
2023-05-19T19:42:05.852Z,102625.41
2023-05-19T19:44:34.819Z,102626.25
2023-05-19T19:47:07.079Z,102627.47
2023-05-19T19:49:36.804Z,102642.00
2023-05-19T19:52:08.570Z,102637.34
2023-05-19T19:54:38.678Z,102646.22
2023-05-19T19:57:08.081Z,102644.22
2023-05-19T19:59:40.245Z,102645.72
2023-05-19T20:02:20.880Z,102643.69
2023-05-19T20:04:50.542Z,102639.03
2023-05-19T20:07:21.081Z,102653.34
2023-05-19T20:09:54.973Z,102655.78
2023-05-19T20:12:25.175Z,102650.59
2023-05-19T20:14:55.308Z,102648.66
2023-05-19T20:17:26.917Z,102645.25
2023-05-19T20:19:56.678Z,102649.53
2023-05-19T20:22:27.329Z,102650.63
2023-05-19T20:24:57.185Z,102666.63
2023-05-19T20:27:34.645Z,102669.72
2023-05-19T20:30:04.109Z,102668.66
2023-05-19T20:32:35.250Z,102677.50
2023-05-19T20:35:04.751Z,102667.84
2023-05-19T20:37:35.173Z,102663.91
2023-05-19T20:40:09.805Z,102671.50
2023-05-19T20:42:41.339Z,102673.97
2023-05-19T20:45:11.698Z,102677.75
2023-05-19T20:47:46.920Z,102665.00
2023-05-19T20:50:18.587Z,102686.44
2023-05-19T20:52:48.056Z,102689.38
2023-05-19T20:55:31.970Z,102690.56
2023-05-19T20:58:02.237Z,102686.75
2023-05-19T21:00:40.238Z,102690.19
2023-05-19T21:03:11.715Z,102673.44
2023-05-19T21:05:44.850Z,102680.44
2023-05-19T21:08:25.683Z,102689.16
2023-05-19T21:10:59.764Z,102687.25
2023-05-19T21:13:31.083Z,102700.56
2023-05-19T21:15:59.992Z,102699.00
2023-05-19T21:18:32.950Z,102694.03
2023-05-19T21:21:07.906Z,102700.66
2023-05-19T21:23:41.967Z,102703.25
2023-05-19T21:26:13.796Z,102695.94
2023-05-19T21:28:44.882Z,102704.66
2023-05-19T21:31:18.447Z,102706.69
2023-05-19T21:33:51.321Z,102703.50
2023-05-19T21:36:23.453Z,102697.41
2023-05-19T21:39:01.995Z,102701.47
2023-05-19T21:41:44.496Z,102707.44
2023-05-19T21:44:15.915Z,102714.22
2023-05-19T21:46:55.426Z,102725.22
2023-05-19T21:49:29.214Z,102724.19
2023-05-19T21:51:58.679Z,102733.38
2023-05-19T21:54:28.637Z,102720.97
2023-05-19T21:57:07.507Z,102728.53
2023-05-19T21:59:42.164Z,102727.09
2023-05-19T22:02:15.620Z,102721.91
2023-05-19T22:04:47.322Z,102726.91
2023-05-19T22:07:18.441Z,102726.44
2023-05-19T22:09:51.349Z,102721.66
2023-05-19T22:12:26.078Z,102717.47
2023-05-19T22:14:57.067Z,102720.66
2023-05-19T22:17:26.046Z,102719.50
2023-05-19T22:19:59.381Z,102720.16
2023-05-19T22:22:29.697Z,102727.09
2023-05-19T22:25:03.897Z,102727.31
2023-05-19T22:27:42.555Z,102721.66
2023-05-19T22:30:43.013Z,102722.31
2023-05-19T22:33:32.770Z,102724.72
2023-05-19T22:36:12.454Z,102717.19
2023-05-19T22:38:44.076Z,102722.84
2023-05-19T22:41:19.655Z,102718.88
2023-05-19T22:43:53.721Z,102718.94
2023-05-19T22:46:27.054Z,102715.25
2023-05-19T22:48:58.634Z,102712.88
2023-05-19T22:51:32.368Z,102722.81
2023-05-19T22:54:03.952Z,102717.38
2023-05-19T22:56:35.213Z,102717.34
2023-05-19T22:59:06.070Z,102722.59
2023-05-19T23:01:49.480Z,102723.28
2023-05-19T23:04:23.756Z,102725.16
2023-05-19T23:06:55.903Z,102725.09
2023-05-19T23:09:27.505Z,102723.66
2023-05-19T23:12:06.822Z,102726.22
2023-05-19T23:14:37.424Z,102723.66
2023-05-19T23:17:10.798Z,102720.66
2023-05-19T23:19:41.093Z,102724.59
2023-05-19T23:22:13.469Z,102724.88
2023-05-19T23:24:43.393Z,102726.63
2023-05-19T23:27:14.330Z,102720.25
2023-05-19T23:29:49.275Z,102722.94
2023-05-19T23:32:20.833Z,102717.41
2023-05-19T23:34:49.889Z,102725.34
2023-05-19T23:37:21.967Z,102721.31
2023-05-19T23:39:52.492Z,102714.13
2023-05-19T23:42:25.487Z,102723.31
2023-05-19T23:44:55.133Z,102720.03
2023-05-19T23:47:26.387Z,102713.47
2023-05-19T23:49:59.628Z,102708.53
2023-05-19T23:52:35.096Z,102706.63
2023-05-19T23:55:06.532Z,102709.59
2023-05-19T23:57:36.236Z,102708.06
